createdAt,value
2019-04-22T00:01:06.943Z,4.20
2019-04-22T00:03:39.039Z,4.22
2019-04-22T00:06:25.958Z,4.35
2019-04-22T00:08:56.029Z,4.55
2019-04-22T00:11:29.061Z,4.50
2019-04-22T00:13:59.592Z,4.08
2019-04-22T00:16:34.403Z,4.13
2019-04-22T00:21:35.229Z,4.60
2019-04-22T00:23:57.882Z,4.10
2019-04-22T00:29:20.826Z,4.25
2019-04-22T00:31:33.204Z,4.40
2019-04-22T00:34:06.161Z,4.40
2019-04-22T00:36:40.423Z,4.55
2019-04-22T00:39:07.203Z,4.25
2019-04-22T00:41:35.794Z,3.87
2019-04-22T00:44:12.368Z,4.25
2019-04-22T00:46:39.928Z,4.40
2019-04-22T00:49:52.751Z,4.30
2019-04-22T00:51:44.759Z,4.45
2019-04-22T00:54:05.924Z,4.33
2019-04-22T00:56:34.230Z,4.17
2019-04-22T00:59:11.491Z,4.42
2019-04-22T01:01:39.503Z,4.30
2019-04-22T01:04:12.543Z,4.17
2019-04-22T01:06:32.985Z,4.20
2019-04-22T01:11:33.664Z,4.72
2019-04-22T01:14:06.527Z,4.35
2019-04-22T01:16:35.651Z,4.03
2019-04-22T01:19:07.618Z,4.00
2019-04-22T01:21:40.822Z,4.67
2019-04-22T01:24:02.700Z,4.37
2019-04-22T01:26:34.614Z,4.67
2019-04-22T01:29:00.937Z,4.65
2019-04-22T01:31:24.896Z,4.58
2019-04-22T01:34:08.395Z,5.12
2019-04-22T01:36:44.088Z,4.60
2019-04-22T01:39:18.703Z,4.60
2019-04-22T01:41:55.134Z,4.77
2019-04-22T01:44:33.106Z,4.87
2019-04-22T01:51:58.654Z,4.37
2019-04-22T01:54:23.367Z,4.20
2019-04-22T01:56:51.064Z,4.40
2019-04-22T01:59:12.517Z,4.67
2019-04-22T02:01:52.507Z,4.80
2019-04-22T02:04:29.768Z,4.45
2019-04-22T02:06:53.805Z,4.53
2019-04-22T02:09:24.093Z,4.50
2019-04-22T02:14:20.563Z,4.95
2019-04-22T02:16:49.825Z,4.70
2019-04-22T02:19:22.908Z,4.77
2019-04-22T02:21:51.656Z,4.17
2019-04-22T02:24:26.363Z,4.93
2019-04-22T02:26:46.452Z,4.55
2019-04-22T02:29:27.023Z,4.53
2019-04-22T02:31:59.426Z,4.63
2019-04-22T02:34:35.112Z,4.45
2019-04-22T02:41:58.574Z,4.53
2019-04-22T02:51:52.246Z,4.47
2019-04-22T02:56:54.278Z,4.87
2019-04-22T02:59:28.401Z,4.70
2019-04-22T03:02:11.869Z,4.70
2019-04-22T03:09:35.757Z,4.73
2019-04-22T03:12:11.441Z,5.00
2019-04-22T03:14:46.034Z,4.87
2019-04-22T03:30:16.335Z,4.70
2019-04-22T03:37:32.228Z,4.47
2019-04-22T03:40:07.666Z,4.73
2019-04-22T03:42:21.555Z,4.93
2019-04-22T03:45:00.346Z,4.87
2019-04-22T03:47:34.231Z,4.83
2019-04-22T03:50:04.133Z,4.90
2019-04-22T03:52:20.429Z,5.10
2019-04-22T03:55:05.490Z,4.53
2019-04-22T03:57:44.787Z,4.90
2019-04-22T03:59:56.713Z,4.67
2019-04-22T04:04:58.710Z,4.83
2019-04-22T04:07:40.676Z,4.80
2019-04-22T04:10:10.510Z,4.50
2019-04-22T04:12:28.696Z,5.03
2019-04-22T04:15:05.410Z,4.87
2019-04-22T04:20:10.956Z,5.00
2019-04-22T04:22:46.056Z,5.57
2019-04-22T04:30:13.725Z,5.40
2019-04-22T04:32:41.657Z,5.30
2019-04-22T04:55:11.925Z,5.60
2019-04-22T05:05:16.785Z,5.27
2019-04-22T05:07:40.815Z,5.17
2019-04-22T05:10:23.206Z,4.90
2019-04-22T05:12:45.044Z,5.10
2019-04-22T05:15:03.949Z,5.13
2019-04-22T05:17:35.568Z,5.13
2019-04-22T05:20:05.363Z,4.93
2019-04-22T05:22:34.044Z,5.17
2019-04-22T05:25:05.989Z,4.87
2019-04-22T05:30:19.584Z,5.00
2019-04-22T05:35:00.561Z,4.90
2019-04-22T05:37:35.628Z,5.20
2019-04-22T05:40:11.888Z,4.90
2019-04-22T05:42:46.275Z,4.50
2019-04-22T05:45:05.571Z,4.67
2019-04-22T05:47:32.310Z,4.72
2019-04-22T05:50:06.453Z,4.60
2019-04-22T05:52:49.816Z,4.60
2019-04-22T05:55:03.012Z,4.57
2019-04-22T05:57:31.497Z,4.50
2019-04-22T06:00:06.342Z,5.25
2019-04-22T06:05:06.658Z,4.10
2019-04-22T06:07:32.454Z,4.62
2019-04-22T06:10:06.710Z,4.78
2019-04-22T06:12:26.544Z,4.40
2019-04-22T06:15:09.659Z,4.78
2019-04-22T06:20:09.058Z,4.80
2019-04-22T06:22:43.210Z,4.50
2019-04-22T06:25:23.260Z,4.87
2019-04-22T06:27:48.288Z,4.28
2019-04-22T06:30:15.674Z,4.60
2019-04-22T06:32:42.105Z,4.42
2019-04-22T06:35:26.172Z,4.30
2019-04-22T06:38:06.789Z,4.42
2019-04-22T06:40:16.263Z,4.03
2019-04-22T06:42:52.381Z,4.50
2019-04-22T06:45:19.280Z,4.33
2019-04-22T06:50:17.723Z,4.50
2019-04-22T06:52:45.205Z,4.30
2019-04-22T06:55:15.150Z,3.87
2019-04-22T06:57:43.577Z,4.40
2019-04-22T07:00:23.211Z,3.98
2019-04-22T07:05:19.682Z,4.22
2019-04-22T07:07:51.766Z,4.00
2019-04-22T07:10:28.646Z,4.45
2019-04-22T07:12:49.775Z,3.83
2019-04-22T07:15:36.907Z,4.05
2019-04-22T07:17:50.822Z,3.40
2019-04-22T07:20:17.294Z,3.45
2019-04-22T07:22:45.515Z,4.12
2019-04-22T07:25:16.032Z,3.70
2019-04-22T07:27:48.643Z,3.77
2019-04-22T07:30:22.396Z,3.40
2019-04-22T07:33:04.597Z,3.77
2019-04-22T07:35:24.717Z,3.52
2019-04-22T07:38:05.915Z,3.10
2019-04-22T07:40:25.161Z,3.25
2019-04-22T07:42:48.078Z,3.30
2019-04-22T07:45:15.551Z,2.87
2019-04-22T07:47:52.097Z,2.92
2019-04-22T07:50:31.204Z,3.12
2019-04-22T07:52:45.020Z,3.10
2019-04-22T07:55:11.612Z,2.70
2019-04-22T07:57:52.031Z,2.70
2019-04-22T08:00:23.069Z,2.72
2019-04-22T08:02:53.628Z,2.65
2019-04-22T08:05:27.647Z,2.90
2019-04-22T08:07:52.036Z,3.00
2019-04-22T08:12:51.931Z,2.67
2019-04-22T08:15:21.374Z,3.08
2019-04-22T08:20:27.339Z,2.85
2019-04-22T08:23:00.867Z,2.72
2019-04-22T08:25:17.991Z,2.62
2019-04-22T08:27:50.461Z,2.60
2019-04-22T08:30:28.989Z,2.10
2019-04-22T08:32:53.446Z,2.30
2019-04-22T08:35:29.593Z,2.40
2019-04-22T08:40:28.824Z,2.10
2019-04-22T08:42:58.388Z,2.40
2019-04-22T08:45:30.421Z,2.52
2019-04-22T08:47:47.943Z,2.50
2019-04-22T08:50:38.959Z,2.47
2019-04-22T08:52:57.569Z,2.22
2019-04-22T08:55:29.614Z,2.30
2019-04-22T09:00:34.234Z,2.22
2019-04-22T09:03:02.255Z,2.00
2019-04-22T09:05:42.447Z,2.20
2019-04-22T09:08:01.442Z,2.10
2019-04-22T09:10:30.690Z,2.05
2019-04-22T09:15:31.238Z,1.90
2019-04-22T09:20:26.714Z,2.00
2019-04-22T09:23:03.801Z,2.25
2019-04-22T09:25:31.437Z,2.17
2019-04-22T09:27:55.808Z,1.90
2019-04-22T09:30:37.388Z,2.25
2019-04-22T09:33:06.101Z,1.92
2019-04-22T09:35:31.918Z,1.90
2019-04-22T09:38:12.030Z,2.12
2019-04-22T09:40:28.977Z,1.80
2019-04-22T09:42:56.148Z,1.70
2019-04-22T09:45:27.642Z,1.77
2019-04-22T09:48:03.109Z,1.90
2019-04-22T09:50:29.360Z,1.92
2019-04-22T09:53:02.062Z,1.90
2019-04-22T09:55:29.793Z,2.00
2019-04-22T09:58:03.214Z,1.62
2019-04-22T10:00:43.069Z,1.82
2019-04-22T10:03:10.305Z,1.75
2019-04-22T10:05:47.797Z,2.12
2019-04-22T10:08:21.866Z,1.95
2019-04-22T10:10:46.899Z,1.80
2019-04-22T10:13:15.440Z,1.67
2019-04-22T10:15:40.970Z,2.02
2019-04-22T10:18:09.774Z,1.90
2019-04-22T10:20:40.594Z,1.75
2019-04-22T10:23:17.768Z,2.02
2019-04-22T10:25:45.495Z,1.98
2019-04-22T10:28:15.578Z,1.57
2019-04-22T10:33:04.614Z,1.57
2019-04-22T10:35:20.985Z,1.70
2019-04-22T10:37:48.113Z,1.72
2019-04-22T10:40:19.605Z,1.60
2019-04-22T10:42:49.317Z,1.60
2019-04-22T10:45:18.492Z,1.50
2019-04-22T10:47:48.019Z,1.65
2019-04-22T10:50:18.657Z,1.80
2019-04-22T10:52:47.721Z,1.70
2019-04-22T10:55:17.238Z,1.60
2019-04-22T10:57:46.389Z,1.57
2019-04-22T11:02:41.602Z,1.70
2019-04-22T11:05:10.349Z,1.57
2019-04-22T11:07:44.244Z,2.05
2019-04-22T11:10:27.341Z,1.90
2019-04-22T11:12:41.209Z,1.87
2019-04-22T11:15:11.784Z,2.05
2019-04-22T11:17:41.694Z,2.10
2019-04-22T11:20:11.306Z,2.30
2019-04-22T11:22:40.752Z,2.30
2019-04-22T11:25:09.804Z,2.00
2019-04-22T11:27:39.075Z,2.20
2019-04-22T11:30:08.375Z,2.52
2019-04-22T11:32:38.212Z,2.20
2019-04-22T11:35:08.011Z,2.00
2019-04-22T11:37:36.810Z,1.90
2019-04-22T11:40:16.598Z,1.70
2019-04-22T11:42:38.423Z,1.92
2019-04-22T11:45:09.055Z,1.92
2019-04-22T11:47:37.600Z,2.10
2019-04-22T11:50:10.510Z,2.20
2019-04-22T11:52:38.946Z,2.10
2019-04-22T11:55:08.710Z,2.10
2019-04-22T11:57:37.434Z,2.20
2019-04-22T12:00:12.511Z,2.02
2019-04-22T12:02:43.038Z,2.20
2019-04-22T12:05:14.160Z,2.20
2019-04-22T12:07:42.734Z,2.02
2019-04-22T12:10:24.671Z,2.17
2019-04-22T12:12:44.792Z,2.10
2019-04-22T12:15:12.998Z,2.42
2019-04-22T12:17:42.641Z,2.20
2019-04-22T12:20:14.136Z,2.70
2019-04-22T12:22:42.956Z,2.70
2019-04-22T12:25:28.032Z,2.27
2019-04-22T12:27:45.298Z,2.30
2019-04-22T12:30:16.711Z,2.42
2019-04-22T12:32:48.513Z,2.70
2019-04-22T12:35:17.747Z,2.30
2019-04-22T12:37:51.496Z,2.50
2019-04-22T12:40:30.133Z,2.50
2019-04-22T12:42:49.054Z,2.33
2019-04-22T12:45:18.514Z,2.42
2019-04-22T12:47:48.242Z,2.42
2019-04-22T12:50:24.127Z,2.47
2019-04-22T12:52:55.588Z,2.80
2019-04-22T12:55:19.659Z,2.00
2019-04-22T12:57:48.619Z,2.37
2019-04-22T13:00:18.708Z,1.90
2019-04-22T13:02:47.387Z,2.20
2019-04-22T13:05:18.558Z,1.95
2019-04-22T13:07:49.530Z,2.10
2019-04-22T13:10:20.004Z,2.42
2019-04-22T13:12:48.978Z,2.17
2019-04-22T13:15:18.248Z,2.15
2019-04-22T13:17:59.518Z,2.30
2019-04-22T13:20:19.831Z,2.20
2019-04-22T13:22:48.645Z,2.10
2019-04-22T13:25:17.610Z,2.22
2019-04-22T13:27:46.832Z,2.20
2019-04-22T13:30:18.468Z,2.45
2019-04-22T13:32:47.226Z,2.00
2019-04-22T13:35:18.523Z,2.20
2019-04-22T13:37:46.772Z,2.20
2019-04-22T13:40:16.994Z,2.02
2019-04-22T13:42:46.767Z,1.98
2019-04-22T13:45:16.269Z,2.00
2019-04-22T13:48:01.552Z,2.37
2019-04-22T13:50:50.205Z,2.20
2019-04-22T13:54:23.441Z,2.20
2019-04-22T13:55:50.258Z,2.27
2019-04-22T13:58:02.653Z,1.95
2019-04-22T14:00:24.898Z,2.10
2019-04-22T14:03:11.067Z,2.08
2019-04-22T14:05:42.551Z,2.30
2019-04-22T14:08:12.685Z,2.37
2019-04-22T14:10:42.628Z,2.35
2019-04-22T14:13:12.136Z,2.30
2019-04-22T14:15:42.240Z,2.58
2019-04-22T14:18:10.887Z,2.10
2019-04-22T14:20:40.714Z,1.98
2019-04-22T14:23:10.231Z,2.70
2019-04-22T14:25:41.048Z,2.40
2019-04-22T14:28:16.890Z,2.40
2019-04-22T14:30:42.324Z,1.80
2019-04-22T14:33:12.097Z,2.10
2019-04-22T14:35:41.570Z,1.80
2019-04-22T14:38:10.212Z,1.90
2019-04-22T14:40:40.565Z,2.37
2019-04-22T14:43:29.033Z,2.22
2019-04-22T14:46:08.137Z,2.00
2019-04-22T14:48:36.262Z,2.35
2019-04-22T14:50:56.003Z,2.37
2019-04-22T14:53:31.153Z,2.22
2019-04-22T14:55:40.410Z,1.90
2019-04-22T14:58:09.275Z,1.82
2019-04-22T15:00:38.252Z,1.85
2019-04-22T15:03:08.241Z,2.25
2019-04-22T15:05:37.206Z,1.77
2019-04-22T15:08:07.064Z,2.20
2019-04-22T15:10:36.118Z,1.72
2019-04-22T15:13:05.362Z,1.92
2019-04-22T15:15:48.037Z,2.00
2019-04-22T15:18:17.550Z,2.00
2019-04-22T15:20:56.621Z,2.27
2019-04-22T15:23:26.561Z,2.30
2019-04-22T15:25:56.679Z,1.98
2019-04-22T15:28:25.267Z,2.25
2019-04-22T15:30:55.491Z,1.95
2019-04-22T15:33:25.517Z,2.02
2019-04-22T15:35:55.573Z,2.05
2019-04-22T15:38:26.189Z,2.17
2019-04-22T15:40:56.558Z,2.50
2019-04-22T15:43:28.889Z,2.70
2019-04-22T15:45:57.149Z,2.37
2019-04-22T15:48:27.232Z,2.10
2019-04-22T15:50:55.867Z,2.40
2019-04-22T15:53:25.420Z,2.40
2019-04-22T15:55:54.685Z,2.30
2019-04-22T15:58:23.855Z,1.95
2019-04-22T16:01:02.575Z,2.35
2019-04-22T16:03:22.830Z,2.10
2019-04-22T16:05:52.213Z,2.05
2019-04-22T16:08:21.405Z,2.10
2019-04-22T16:10:49.909Z,1.82
2019-04-22T16:13:23.059Z,2.35
2019-04-22T16:15:49.003Z,2.22
2019-04-22T16:18:18.237Z,2.15
2019-04-22T16:20:48.097Z,2.10
2019-04-22T16:23:25.574Z,2.10
2019-04-22T16:25:53.558Z,2.10
2019-04-22T16:28:22.100Z,2.10
2019-04-22T16:30:51.081Z,2.20
2019-04-22T16:33:21.452Z,1.95
2019-04-22T16:35:50.851Z,2.30
2019-04-22T16:38:19.451Z,2.30
2019-04-22T16:40:48.587Z,2.40
2019-04-22T16:43:17.201Z,2.30
2019-04-22T16:45:45.857Z,2.10
2019-04-22T16:48:15.678Z,2.30
2019-04-22T16:50:46.658Z,2.22
2019-04-22T16:53:14.821Z,2.20
2019-04-22T16:55:44.555Z,2.10
2019-04-22T16:58:14.636Z,2.10
2019-04-22T17:00:44.879Z,2.30
2019-04-22T17:03:34.288Z,2.30
2019-04-22T17:06:10.076Z,2.10
2019-04-22T17:08:39.054Z,2.35
2019-04-22T17:11:07.646Z,2.20
2019-04-22T17:13:38.084Z,2.60
2019-04-22T17:16:07.024Z,2.22
2019-04-22T17:18:37.078Z,2.40
2019-04-22T17:21:08.465Z,2.40
2019-04-22T17:23:36.233Z,2.10
2019-04-22T17:26:06.209Z,2.27
2019-04-22T17:28:35.527Z,2.90
2019-04-22T17:31:04.708Z,2.75
2019-04-22T17:33:34.870Z,2.42
2019-04-22T17:36:05.260Z,2.60
2019-04-22T17:38:43.778Z,2.83
2019-04-22T17:41:16.135Z,2.50
2019-04-22T17:43:58.849Z,2.65
2019-04-22T17:46:24.785Z,2.55
2019-04-22T17:49:04.020Z,2.80
2019-04-22T17:51:54.595Z,2.45
2019-04-22T17:54:12.048Z,2.42
2019-04-22T17:56:41.934Z,2.60
2019-04-22T17:59:10.470Z,2.33
2019-04-22T18:01:32.677Z,2.60
2019-04-22T18:03:52.855Z,2.67
2019-04-22T18:06:44.139Z,2.72
2019-04-22T18:09:09.955Z,2.47
2019-04-22T18:11:56.456Z,2.45
2019-04-22T18:14:29.863Z,2.85
2019-04-22T18:16:41.462Z,2.42
2019-04-22T18:19:10.017Z,2.70
2019-04-22T18:21:35.021Z,2.72
2019-04-22T18:24:01.274Z,3.05
2019-04-22T18:26:43.502Z,2.75
2019-04-22T18:29:11.583Z,2.62
2019-04-22T18:31:33.021Z,2.75
2019-04-22T18:34:06.908Z,2.50
2019-04-22T18:36:37.435Z,2.50
2019-04-22T18:39:20.901Z,2.50
2019-04-22T18:41:42.898Z,2.70
2019-04-22T18:44:16.914Z,2.60
2019-04-22T18:46:42.597Z,8.03
2019-04-22T18:49:11.048Z,2.70
2019-04-22T18:52:02.879Z,5.53
2019-04-22T18:54:31.036Z,4.08
2019-04-22T18:57:02.746Z,2.60
2019-04-22T18:59:21.546Z,5.45
2019-04-22T19:01:43.951Z,2.83
2019-04-22T19:04:19.414Z,3.12
2019-04-22T19:07:01.698Z,3.30
2019-04-22T19:09:45.346Z,2.75
2019-04-22T19:12:15.212Z,2.65
2019-04-22T19:14:40.748Z,2.55
2019-04-22T19:17:18.969Z,2.65
2019-04-22T19:19:56.236Z,2.58
2019-04-22T19:22:06.714Z,2.30
2019-04-22T19:24:34.423Z,2.77
2019-04-22T19:27:22.486Z,2.70
2019-04-22T19:29:39.563Z,2.40
2019-04-22T19:32:06.965Z,2.65
2019-04-22T19:34:39.984Z,2.50
2019-04-22T19:37:07.086Z,2.33
2019-04-22T19:39:40.839Z,2.92
2019-04-22T19:42:21.413Z,2.55
2019-04-22T19:44:39.422Z,2.47
2019-04-22T19:47:26.973Z,2.60
2019-04-22T19:49:48.387Z,2.75
2019-04-22T19:52:19.434Z,2.80
2019-04-22T19:54:44.028Z,2.58
2019-04-22T19:57:06.980Z,2.60
2019-04-22T19:59:32.366Z,2.92
2019-04-22T20:02:12.887Z,2.58
2019-04-22T20:04:58.018Z,2.60
2019-04-22T20:07:13.054Z,2.70
2019-04-22T20:09:49.347Z,2.70
2019-04-22T20:12:20.011Z,2.83
2019-04-22T20:14:48.013Z,2.85
2019-04-22T20:17:18.710Z,2.77
2019-04-22T20:19:52.553Z,2.90
2019-04-22T20:22:21.696Z,2.50
2019-04-22T20:24:34.084Z,3.10
2019-04-22T20:27:18.876Z,3.02
2019-04-22T20:29:49.758Z,3.47
2019-04-22T20:32:18.746Z,2.90
2019-04-22T20:34:54.220Z,3.00
2019-04-22T20:37:23.619Z,3.33
2019-04-22T20:39:50.267Z,2.80
2019-04-22T20:42:31.530Z,2.80
2019-04-22T20:44:55.067Z,2.98
2019-04-22T20:47:16.595Z,2.90
2019-04-22T20:49:47.215Z,2.92
2019-04-22T20:52:26.192Z,2.70
2019-04-22T20:54:53.047Z,3.02
2019-04-22T20:57:15.359Z,3.15
2019-04-22T20:59:48.082Z,3.08
2019-04-22T21:02:15.190Z,3.40
2019-04-22T21:04:41.550Z,3.22
2019-04-22T21:07:14.029Z,3.00
2019-04-22T21:09:50.535Z,3.37
2019-04-22T21:12:13.737Z,2.92
2019-04-22T21:14:54.873Z,2.77
2019-04-22T21:17:25.074Z,3.12
2019-04-22T21:20:15.566Z,3.00
2019-04-22T21:22:22.652Z,3.00
2019-04-22T21:24:49.250Z,3.25
2019-04-22T21:27:28.380Z,3.25
2019-04-22T21:29:49.622Z,3.20
2019-04-22T21:32:24.153Z,3.10
2019-04-22T21:34:59.655Z,3.30
2019-04-22T21:37:31.769Z,3.40
2019-04-22T21:39:52.247Z,3.08
2019-04-22T21:42:28.569Z,3.42
2019-04-22T21:44:51.111Z,3.83
2019-04-22T21:47:34.994Z,3.90
2019-04-22T21:50:19.553Z,3.25
2019-04-22T21:52:28.212Z,3.77
2019-04-22T21:55:08.680Z,3.60
2019-04-22T21:57:43.797Z,3.77
2019-04-22T22:00:16.984Z,3.58
2019-04-22T22:02:47.155Z,3.60
2019-04-22T22:05:07.869Z,3.65
2019-04-22T22:07:24.713Z,3.90
2019-04-22T22:10:12.279Z,3.98
2019-04-22T22:12:43.576Z,3.47
2019-04-22T22:15:16.623Z,4.08
2019-04-22T22:17:35.601Z,4.20
2019-04-22T22:20:06.142Z,3.58
2019-04-22T22:23:00.323Z,3.37
2019-04-22T22:25:16.400Z,4.00
2019-04-22T22:27:40.801Z,3.90
2019-04-22T22:30:33.742Z,4.30
2019-04-22T22:32:42.287Z,4.25
2019-04-22T22:35:16.205Z,4.35
2019-04-22T22:37:35.952Z,4.12
2019-04-22T22:40:00.965Z,4.33
2019-04-22T22:42:30.191Z,4.22
2019-04-22T22:45:04.003Z,4.22
2019-04-22T22:47:39.327Z,4.45
2019-04-22T22:50:10.963Z,4.45
2019-04-22T22:53:17.131Z,4.40
2019-04-22T22:55:18.039Z,4.60
2019-04-22T22:57:46.110Z,4.28
2019-04-22T23:00:14.989Z,4.65
2019-04-22T23:03:03.412Z,4.60
2019-04-22T23:05:18.457Z,4.75
2019-04-22T23:07:47.612Z,4.55
2019-04-22T23:10:16.125Z,4.28
2019-04-22T23:12:48.531Z,4.45
2019-04-22T23:15:18.510Z,4.92
2019-04-22T23:17:28.131Z,4.72
2019-04-22T23:19:57.682Z,4.80
2019-04-22T23:22:34.354Z,4.72
2019-04-22T23:25:27.079Z,4.90
2019-04-22T23:27:51.436Z,4.80
2019-04-22T23:30:29.218Z,4.80
2019-04-22T23:33:16.204Z,4.72
2019-04-22T23:35:56.342Z,4.80
2019-04-22T23:38:25.589Z,5.37
2019-04-22T23:41:00.176Z,5.08
2019-04-22T23:43:34.055Z,5.10
2019-04-22T23:46:02.290Z,4.83
2019-04-22T23:48:27.260Z,5.22
2019-04-22T23:51:03.150Z,5.08
2019-04-22T23:54:13.917Z,5.62
2019-04-22T23:56:06.097Z,5.10
2019-04-22T23:58:52.411Z,5.12
